sensor_id;sensor_type;location;lat;lon;timestamp;pressure;altitude;pressure_sealevel;temperature;humidity
3748;BME280;1889;50.058;8.688;2024-02-28T00:02:27;100411.62;;;9.34;63.19
3748;BME280;1889;50.058;8.688;2024-02-28T00:04:59;100408.79;;;9.57;62.54
3748;BME280;1889;50.058;8.688;2024-02-28T00:07:28;100406.08;;;9.66;62.20
3748;BME280;1889;50.058;8.688;2024-02-28T00:10:01;100410.82;;;9.74;62.18
3748;BME280;1889;50.058;8.688;2024-02-28T00:12:31;100409.85;;;9.84;61.72
3748;BME280;1889;50.058;8.688;2024-02-28T00:15:06;100417.28;;;9.88;61.73
3748;BME280;1889;50.058;8.688;2024-02-28T00:17:42;100417.36;;;9.79;61.91
3748;BME280;1889;50.058;8.688;2024-02-28T00:20:11;100418.50;;;9.97;61.17
3748;BME280;1889;50.058;8.688;2024-02-28T00:22:42;100419.84;;;9.94;61.34
3748;BME280;1889;50.058;8.688;2024-02-28T00:25:12;100421.16;;;9.92;61.35
3748;BME280;1889;50.058;8.688;2024-02-28T00:27:48;100418.26;;;9.76;61.35
3748;BME280;1889;50.058;8.688;2024-02-28T00:30:17;100421.89;;;9.65;61.64
3748;BME280;1889;50.058;8.688;2024-02-28T00:32:47;100427.84;;;8.66;63.93
3748;BME280;1889;50.058;8.688;2024-02-28T00:35:17;100436.41;;;8.98;63.63
3748;BME280;1889;50.058;8.688;2024-02-28T00:37:47;100431.05;;;9.13;63.16
3748;BME280;1889;50.058;8.688;2024-02-28T00:40:16;100430.08;;;9.25;62.83
3748;BME280;1889;50.058;8.688;2024-02-28T00:42:46;100434.37;;;9.38;62.33
3748;BME280;1889;50.058;8.688;2024-02-28T00:45:21;100436.23;;;9.24;62.79
3748;BME280;1889;50.058;8.688;2024-02-28T00:47:47;100439.17;;;8.69;64.25
3748;BME280;1889;50.058;8.688;2024-02-28T00:50:17;100445.77;;;8.65;64.63
3748;BME280;1889;50.058;8.688;2024-02-28T00:52:47;100438.98;;;9.01;63.71
3748;BME280;1889;50.058;8.688;2024-02-28T00:55:16;100445.60;;;8.94;63.88
3748;BME280;1889;50.058;8.688;2024-02-28T00:57:47;100446.86;;;9.01;63.81
3748;BME280;1889;50.058;8.688;2024-02-28T01:00:16;100449.82;;;9.19;63.41
3748;BME280;1889;50.058;8.688;2024-02-28T01:02:46;100448.05;;;9.24;63.05
3748;BME280;1889;50.058;8.688;2024-02-28T01:05:16;100452.69;;;9.46;62.27
3748;BME280;1889;50.058;8.688;2024-02-28T01:07:50;100455.78;;;9.41;62.43
3748;BME280;1889;50.058;8.688;2024-02-28T01:10:20;100456.20;;;9.45;62.50
3748;BME280;1889;50.058;8.688;2024-02-28T01:12:49;100463.09;;;8.95;63.46
3748;BME280;1889;50.058;8.688;2024-02-28T01:15:19;100460.42;;;9.05;63.12
3748;BME280;1889;50.058;8.688;2024-02-28T01:17:49;100466.02;;;9.17;62.74
3748;BME280;1889;50.058;8.688;2024-02-28T01:20:18;100464.20;;;9.30;62.29
3748;BME280;1889;50.058;8.688;2024-02-28T01:22:48;100466.76;;;9.39;62.14
3748;BME280;1889;50.058;8.688;2024-02-28T01:25:17;100472.72;;;8.94;63.12
3748;BME280;1889;50.058;8.688;2024-02-28T01:27:47;100474.37;;;9.12;62.82
3748;BME280;1889;50.058;8.688;2024-02-28T01:30:16;100467.42;;;9.06;62.77
3748;BME280;1889;50.058;8.688;2024-02-28T01:32:45;100469.62;;;9.01;63.06
3748;BME280;1889;50.058;8.688;2024-02-28T01:35:16;100473.98;;;9.08;62.88
3748;BME280;1889;50.058;8.688;2024-02-28T01:37:45;100477.00;;;9.12;62.79
3748;BME280;1889;50.058;8.688;2024-02-28T01:40:15;100471.64;;;9.30;61.95
3748;BME280;1889;50.058;8.688;2024-02-28T01:42:44;100486.19;;;9.12;62.49
3748;BME280;1889;50.058;8.688;2024-02-28T01:45:14;100482.30;;;9.04;62.66
3748;BME280;1889;50.058;8.688;2024-02-28T01:47:44;100485.75;;;9.12;62.65
3748;BME280;1889;50.058;8.688;2024-02-28T01:50:13;100482.69;;;9.10;62.56
3748;BME280;1889;50.058;8.688;2024-02-28T01:52:43;100492.01;;;8.92;63.00
3748;BME280;1889;50.058;8.688;2024-02-28T01:55:12;100487.28;;;8.70;63.53
3748;BME280;1889;50.058;8.688;2024-02-28T01:57:42;100486.29;;;8.92;63.07
3748;BME280;1889;50.058;8.688;2024-02-28T02:00:11;100475.73;;;9.07;62.46
3748;BME280;1889;50.058;8.688;2024-02-28T02:02:42;100478.31;;;9.13;62.23
3748;BME280;1889;50.058;8.688;2024-02-28T02:05:12;100471.80;;;9.03;62.52
3748;BME280;1889;50.058;8.688;2024-02-28T02:07:43;100472.67;;;9.05;62.66
3748;BME280;1889;50.058;8.688;2024-02-28T02:10:13;100471.70;;;9.18;62.20
3748;BME280;1889;50.058;8.688;2024-02-28T02:12:42;100476.91;;;9.26;61.71
3748;BME280;1889;50.058;8.688;2024-02-28T02:15:11;100479.09;;;9.25;61.78
3748;BME280;1889;50.058;8.688;2024-02-28T02:17:41;100477.38;;;9.22;61.99
3748;BME280;1889;50.058;8.688;2024-02-28T02:20:13;100480.45;;;9.22;62.08
3748;BME280;1889;50.058;8.688;2024-02-28T02:22:43;100479.12;;;9.23;62.05
3748;BME280;1889;50.058;8.688;2024-02-28T02:25:12;100485.26;;;9.24;62.01
3748;BME280;1889;50.058;8.688;2024-02-28T02:27:42;100481.72;;;9.26;61.97
3748;BME280;1889;50.058;8.688;2024-02-28T02:30:12;100488.27;;;9.29;61.86
3748;BME280;1889;50.058;8.688;2024-02-28T02:32:41;100489.59;;;9.26;61.93
3748;BME280;1889;50.058;8.688;2024-02-28T02:35:10;100489.34;;;8.99;61.82
3748;BME280;1889;50.058;8.688;2024-02-28T02:37:44;100497.73;;;8.84;62.40
3748;BME280;1889;50.058;8.688;2024-02-28T02:40:33;100491.25;;;8.62;63.03
3748;BME280;1889;50.058;8.688;2024-02-28T02:43:02;100498.17;;;8.77;62.93
3748;BME280;1889;50.058;8.688;2024-02-28T02:45:32;100505.57;;;8.90;62.84
3748;BME280;1889;50.058;8.688;2024-02-28T02:48:01;100504.22;;;8.94;62.63
3748;BME280;1889;50.058;8.688;2024-02-28T02:50:30;100501.16;;;8.99;62.44
3748;BME280;1889;50.058;8.688;2024-02-28T02:53:00;100498.88;;;9.09;61.90
3748;BME280;1889;50.058;8.688;2024-02-28T02:55:29;100504.22;;;8.93;62.08
3748;BME280;1889;50.058;8.688;2024-02-28T02:57:59;100501.59;;;8.93;62.28
3748;BME280;1889;50.058;8.688;2024-02-28T03:00:29;100505.97;;;8.97;62.25
3748;BME280;1889;50.058;8.688;2024-02-28T03:02:58;100511.22;;;8.98;62.39
3748;BME280;1889;50.058;8.688;2024-02-28T03:05:27;100510.78;;;8.99;62.45
3748;BME280;1889;50.058;8.688;2024-02-28T03:07:57;100514.24;;;9.01;62.32
3748;BME280;1889;50.058;8.688;2024-02-28T03:10:26;100512.93;;;9.02;62.37
3748;BME280;1889;50.058;8.688;2024-02-28T03:12:55;100512.97;;;8.99;62.19
3748;BME280;1889;50.058;8.688;2024-02-28T03:15:25;100508.55;;;9.03;62.07
3748;BME280;1889;50.058;8.688;2024-02-28T03:17:54;100515.16;;;9.00;62.06
3748;BME280;1889;50.058;8.688;2024-02-28T03:20:24;100514.68;;;9.03;62.12
3748;BME280;1889;50.058;8.688;2024-02-28T03:22:54;100514.67;;;9.08;62.12
3748;BME280;1889;50.058;8.688;2024-02-28T03:25:23;100517.73;;;9.06;61.96
3748;BME280;1889;50.058;8.688;2024-02-28T03:27:53;100519.05;;;9.01;61.78
3748;BME280;1889;50.058;8.688;2024-02-28T03:30:23;100527.80;;;9.06;61.80
3748;BME280;1889;50.058;8.688;2024-02-28T03:32:52;100525.61;;;9.06;61.95
3748;BME280;1889;50.058;8.688;2024-02-28T03:35:22;100530.86;;;9.06;61.94
3748;BME280;1889;50.058;8.688;2024-02-28T03:37:51;100535.75;;;8.90;62.01
3748;BME280;1889;50.058;8.688;2024-02-28T03:40:20;100543.35;;;8.43;62.74
3748;BME280;1889;50.058;8.688;2024-02-28T03:42:50;100538.95;;;8.50;62.96
3748;BME280;1889;50.058;8.688;2024-02-28T03:45:19;100541.58;;;8.51;62.88
3748;BME280;1889;50.058;8.688;2024-02-28T03:47:48;100542.84;;;8.60;62.80
3748;BME280;1889;50.058;8.688;2024-02-28T03:50:18;100543.69;;;8.70;62.64
3748;BME280;1889;50.058;8.688;2024-02-28T03:52:47;100546.28;;;8.80;62.49
3748;BME280;1889;50.058;8.688;2024-02-28T03:55:16;100545.81;;;8.84;62.33
3748;BME280;1889;50.058;8.688;2024-02-28T03:57:49;100548.44;;;8.87;62.20
3748;BME280;1889;50.058;8.688;2024-02-28T04:00:20;100557.66;;;8.81;61.96
3748;BME280;1889;50.058;8.688;2024-02-28T04:02:49;100560.25;;;8.84;62.06
3748;BME280;1889;50.058;8.688;2024-02-28T04:05:18;100562.44;;;8.85;62.08
3748;BME280;1889;50.058;8.688;2024-02-28T04:07:48;100569.88;;;8.87;62.04
3748;BME280;1889;50.058;8.688;2024-02-28T04:10:17;100565.50;;;8.89;61.79
3748;BME280;1889;50.058;8.688;2024-02-28T04:12:47;100559.84;;;8.83;61.86
3748;BME280;1889;50.058;8.688;2024-02-28T04:15:17;100562.92;;;8.69;61.94
3748;BME280;1889;50.058;8.688;2024-02-28T04:17:46;100570.83;;;8.67;62.06
3748;BME280;1889;50.058;8.688;2024-02-28T04:20:15;100570.41;;;8.53;61.86
3748;BME280;1889;50.058;8.688;2024-02-28T04:22:44;100579.17;;;8.36;62.31
3748;BME280;1889;50.058;8.688;2024-02-28T04:25:14;100567.84;;;8.10;62.57
3748;BME280;1889;50.058;8.688;2024-02-28T04:27:43;100575.23;;;8.04;62.85
3748;BME280;1889;50.058;8.688;2024-02-28T04:30:13;100577.43;;;8.16;62.99
3748;BME280;1889;50.058;8.688;2024-02-28T04:32:42;100572.63;;;8.17;62.66
3748;BME280;1889;50.058;8.688;2024-02-28T04:35:12;100578.75;;;7.78;63.07
3748;BME280;1889;50.058;8.688;2024-02-28T04:37:43;100592.61;;;6.39;67.10
3748;BME280;1889;50.058;8.688;2024-02-28T04:40:12;100593.80;;;6.23;68.86
3748;BME280;1889;50.058;8.688;2024-02-28T04:42:42;100592.18;;;6.40;67.89
3748;BME280;1889;50.058;8.688;2024-02-28T04:45:12;100598.47;;;6.75;66.89
3748;BME280;1889;50.058;8.688;2024-02-28T04:47:41;100604.30;;;7.08;66.26
3748;BME280;1889;50.058;8.688;2024-02-28T04:50:11;100613.54;;;7.26;65.85
3748;BME280;1889;50.058;8.688;2024-02-28T04:52:40;100621.45;;;7.43;65.58
3748;BME280;1889;50.058;8.688;2024-02-28T04:55:10;100614.95;;;7.60;65.34
3748;BME280;1889;50.058;8.688;2024-02-28T04:57:39;100619.33;;;7.73;65.14
3748;BME280;1889;50.058;8.688;2024-02-28T05:00:09;100621.52;;;7.80;64.96
3748;BME280;1889;50.058;8.688;2024-02-28T05:02:38;100624.14;;;7.87;64.71
3748;BME280;1889;50.058;8.688;2024-02-28T05:05:08;100625.05;;;7.98;64.34
3748;BME280;1889;50.058;8.688;2024-02-28T05:07:37;100639.48;;;6.82;65.77
3748;BME280;1889;50.058;8.688;2024-02-28T05:10:07;100640.87;;;6.98;66.29
3748;BME280;1889;50.058;8.688;2024-02-28T05:12:37;100649.77;;;7.28;65.58
3748;BME280;1889;50.058;8.688;2024-02-28T05:15:07;100649.39;;;7.44;65.17
3748;BME280;1889;50.058;8.688;2024-02-28T05:17:36;100647.66;;;7.55;64.88
3748;BME280;1889;50.058;8.688;2024-02-28T05:20:06;100653.39;;;7.69;64.55
3748;BME280;1889;50.058;8.688;2024-02-28T05:22:37;100642.06;;;7.77;64.34
3748;BME280;1889;50.058;8.688;2024-02-28T05:25:08;100645.98;;;7.83;64.15
3748;BME280;1889;50.058;8.688;2024-02-28T05:27:37;100654.28;;;7.89;64.06
3748;BME280;1889;50.058;8.688;2024-02-28T05:30:07;100646.87;;;7.96;63.86
3748;BME280;1889;50.058;8.688;2024-02-28T05:32:37;100646.03;;;8.01;63.80
3748;BME280;1889;50.058;8.688;2024-02-28T05:35:07;100639.45;;;8.04;63.76
3748;BME280;1889;50.058;8.688;2024-02-28T05:37:36;100641.20;;;8.05;63.60
3748;BME280;1889;50.058;8.688;2024-02-28T05:40:07;100656.05;;;8.11;63.37
3748;BME280;1889;50.058;8.688;2024-02-28T05:42:37;100656.05;;;8.11;63.32
3748;BME280;1889;50.058;8.688;2024-02-28T05:45:08;100655.63;;;8.15;63.33
3748;BME280;1889;50.058;8.688;2024-02-28T05:47:37;100656.06;;;8.14;63.17
3748;BME280;1889;50.058;8.688;2024-02-28T05:50:07;100658.24;;;8.12;63.13
3748;BME280;1889;50.058;8.688;2024-02-28T05:52:38;100660.89;;;8.10;63.10
3748;BME280;1889;50.058;8.688;2024-02-28T05:55:07;100667.44;;;8.10;63.04
3748;BME280;1889;50.058;8.688;2024-02-28T05:57:37;100676.41;;;7.40;63.07
3748;BME280;1889;50.058;8.688;2024-02-28T06:00:07;100684.84;;;6.84;65.75
3748;BME280;1889;50.058;8.688;2024-02-28T06:02:40;100682.89;;;7.25;64.80
3748;BME280;1889;50.058;8.688;2024-02-28T06:05:10;100684.74;;;7.49;64.02
3748;BME280;1889;50.058;8.688;2024-02-28T06:07:39;100688.69;;;7.55;63.86
3748;BME280;1889;50.058;8.688;2024-02-28T06:10:09;100686.97;;;7.60;63.86
3748;BME280;1889;50.058;8.688;2024-02-28T06:12:38;100685.22;;;7.63;63.75
3748;BME280;1889;50.058;8.688;2024-02-28T06:15:08;100690.83;;;7.42;63.97
3748;BME280;1889;50.058;8.688;2024-02-28T06:17:37;100695.69;;;7.53;63.82
3748;BME280;1889;50.058;8.688;2024-02-28T06:20:07;100706.24;;;6.90;64.48
3748;BME280;1889;50.058;8.688;2024-02-28T06:22:37;100707.86;;;6.70;65.58
3748;BME280;1889;50.058;8.688;2024-02-28T06:25:07;100700.19;;;6.96;65.28
3748;BME280;1889;50.058;8.688;2024-02-28T06:27:38;100712.52;;;7.16;64.84
3748;BME280;1889;50.058;8.688;2024-02-28T06:30:08;100721.34;;;6.68;65.70
3748;BME280;1889;50.058;8.688;2024-02-28T06:32:37;100713.21;;;6.89;65.54
3748;BME280;1889;50.058;8.688;2024-02-28T06:35:07;100722.48;;;7.06;65.24
3748;BME280;1889;50.058;8.688;2024-02-28T06:37:37;100718.64;;;7.18;65.11
3748;BME280;1889;50.058;8.688;2024-02-28T06:40:07;100726.13;;;7.33;64.91
3748;BME280;1889;50.058;8.688;2024-02-28T06:42:38;100724.88;;;7.48;64.65
3748;BME280;1889;50.058;8.688;2024-02-28T06:45:08;100742.27;;;7.32;64.46
3748;BME280;1889;50.058;8.688;2024-02-28T06:47:37;100739.22;;;7.30;64.92
3748;BME280;1889;50.058;8.688;2024-02-28T06:50:08;100733.64;;;7.51;64.64
3748;BME280;1889;50.058;8.688;2024-02-28T06:52:38;100740.66;;;7.63;64.45
3748;BME280;1889;50.058;8.688;2024-02-28T06:55:07;100742.91;;;7.76;63.93
3748;BME280;1889;50.058;8.688;2024-02-28T06:57:41;100742.95;;;7.85;63.77
3748;BME280;1889;50.058;8.688;2024-02-28T07:00:11;100745.98;;;7.87;63.82
3748;BME280;1889;50.058;8.688;2024-02-28T07:02:42;100756.50;;;7.96;63.94
3748;BME280;1889;50.058;8.688;2024-02-28T07:05:13;100760.05;;;8.08;63.99
3748;BME280;1889;50.058;8.688;2024-02-28T07:07:42;100761.78;;;8.05;63.88
3748;BME280;1889;50.058;8.688;2024-02-28T07:10:11;100763.52;;;8.00;63.99
3748;BME280;1889;50.058;8.688;2024-02-28T07:12:41;100765.73;;;8.13;63.91
3748;BME280;1889;50.058;8.688;2024-02-28T07:15:11;100772.77;;;8.25;63.65
3748;BME280;1889;50.058;8.688;2024-02-28T07:17:40;100770.17;;;8.31;63.74
3748;BME280;1889;50.058;8.688;2024-02-28T07:20:10;100771.94;;;8.39;63.66
3748;BME280;1889;50.058;8.688;2024-02-28T07:22:42;100769.77;;;8.48;63.70
3748;BME280;1889;50.058;8.688;2024-02-28T07:25:12;100770.62;;;8.32;63.58
3748;BME280;1889;50.058;8.688;2024-02-28T07:27:41;100774.94;;;8.24;63.80
3748;BME280;1889;50.058;8.688;2024-02-28T07:30:11;100776.30;;;8.31;63.85
3748;BME280;1889;50.058;8.688;2024-02-28T07:32:40;100773.14;;;8.01;64.62
3748;BME280;1889;50.058;8.688;2024-02-28T07:35:11;100782.59;;;7.61;66.11
3748;BME280;1889;50.058;8.688;2024-02-28T07:37:41;100780.92;;;7.82;65.75
3748;BME280;1889;50.058;8.688;2024-02-28T07:40:11;100781.80;;;7.87;65.56
3748;BME280;1889;50.058;8.688;2024-02-28T07:42:40;100792.63;;;7.60;66.25
3748;BME280;1889;50.058;8.688;2024-02-28T07:45:09;100800.66;;;7.19;68.03
3748;BME280;1889;50.058;8.688;2024-02-28T07:47:39;100795.80;;;7.11;68.71
3748;BME280;1889;50.058;8.688;2024-02-28T07:50:08;100793.84;;;7.48;67.72
3748;BME280;1889;50.058;8.688;2024-02-28T07:52:37;100800.05;;;7.65;67.28
3748;BME280;1889;50.058;8.688;2024-02-28T07:55:07;100789.25;;;7.86;66.74
3748;BME280;1889;50.058;8.688;2024-02-28T07:57:36;100790.16;;;7.98;66.30
3748;BME280;1889;50.058;8.688;2024-02-28T08:00:06;100792.11;;;7.49;67.18
3748;BME280;1889;50.058;8.688;2024-02-28T08:02:36;100793.89;;;7.56;67.61
3748;BME280;1889;50.058;8.688;2024-02-28T08:05:07;100788.38;;;7.85;66.79
3748;BME280;1889;50.058;8.688;2024-02-28T08:07:36;100783.19;;;8.02;65.97
3748;BME280;1889;50.058;8.688;2024-02-28T08:10:06;100784.02;;;7.95;66.02
3748;BME280;1889;50.058;8.688;2024-02-28T08:12:37;100786.58;;;7.75;66.27
3748;BME280;1889;50.058;8.688;2024-02-28T08:15:07;100799.64;;;7.68;66.77
3748;BME280;1889;50.058;8.688;2024-02-28T08:17:36;100799.34;;;7.19;67.41
3748;BME280;1889;50.058;8.688;2024-02-28T08:20:06;100805.89;;;7.22;68.33
3748;BME280;1889;50.058;8.688;2024-02-28T08:22:36;100809.30;;;6.58;70.31
3748;BME280;1889;50.058;8.688;2024-02-28T08:25:06;100808.25;;;6.41;71.82
3748;BME280;1889;50.058;8.688;2024-02-28T08:27:35;100812.05;;;6.73;71.55
3748;BME280;1889;50.058;8.688;2024-02-28T08:30:05;100803.69;;;6.62;71.12
3748;BME280;1889;50.058;8.688;2024-02-28T08:32:34;100803.83;;;6.34;72.92
3748;BME280;1889;50.058;8.688;2024-02-28T08:35:06;100799.97;;;6.86;71.41
3748;BME280;1889;50.058;8.688;2024-02-28T08:37:35;100808.62;;;7.39;70.02
3748;BME280;1889;50.058;8.688;2024-02-28T08:40:05;100803.13;;;7.71;69.00
3748;BME280;1889;50.058;8.688;2024-02-28T08:42:34;100809.34;;;7.15;69.39
3748;BME280;1889;50.058;8.688;2024-02-28T08:45:04;100806.58;;;6.46;72.11
3748;BME280;1889;50.058;8.688;2024-02-28T08:47:34;100801.20;;;5.94;75.12
3748;BME280;1889;50.058;8.688;2024-02-28T08:50:03;100805.75;;;6.48;74.16
3748;BME280;1889;50.058;8.688;2024-02-28T08:52:33;100809.25;;;7.01;72.72
3748;BME280;1889;50.058;8.688;2024-02-28T08:55:02;100796.83;;;7.34;71.52
3748;BME280;1889;50.058;8.688;2024-02-28T08:57:31;100804.44;;;7.71;70.49
3748;BME280;1889;50.058;8.688;2024-02-28T09:00:02;100801.90;;;7.88;69.51
3748;BME280;1889;50.058;8.688;2024-02-28T09:02:32;100801.12;;;8.09;68.81
3748;BME280;1889;50.058;8.688;2024-02-28T09:05:01;100804.13;;;7.93;69.09
3748;BME280;1889;50.058;8.688;2024-02-28T09:07:30;100816.89;;;8.28;68.75
3748;BME280;1889;50.058;8.688;2024-02-28T09:09:59;100820.48;;;8.49;67.91
3748;BME280;1889;50.058;8.688;2024-02-28T09:12:29;100821.78;;;8.47;67.84
3748;BME280;1889;50.058;8.688;2024-02-28T09:14:58;100822.49;;;8.00;67.84
3748;BME280;1889;50.058;8.688;2024-02-28T09:17:28;100833.31;;;7.77;67.88
3748;BME280;1889;50.058;8.688;2024-02-28T09:19:57;100840.89;;;7.33;69.48
3748;BME280;1889;50.058;8.688;2024-02-28T09:22:28;100839.81;;;7.68;69.48
3748;BME280;1889;50.058;8.688;2024-02-28T09:24:57;100840.86;;;8.07;68.61
3748;BME280;1889;50.058;8.688;2024-02-28T09:27:27;100836.61;;;8.31;67.80
3748;BME280;1889;50.058;8.688;2024-02-28T09:29:56;100840.62;;;8.63;66.98
3748;BME280;1889;50.058;8.688;2024-02-28T09:32:25;100833.22;;;8.75;66.30
3748;BME280;1889;50.058;8.688;2024-02-28T09:34:55;100830.55;;;8.55;66.29
3748;BME280;1889;50.058;8.688;2024-02-28T09:37:24;100834.09;;;8.74;66.08
3748;BME280;1889;50.058;8.688;2024-02-28T09:39:54;100834.50;;;8.64;66.04
3748;BME280;1889;50.058;8.688;2024-02-28T09:42:23;100843.69;;;8.84;65.64
3748;BME280;1889;50.058;8.688;2024-02-28T09:44:53;100844.58;;;8.80;65.83
3748;BME280;1889;50.058;8.688;2024-02-28T09:47:23;100850.27;;;8.67;65.15
3748;BME280;1889;50.058;8.688;2024-02-28T09:49:54;100852.57;;;7.85;67.27
3748;BME280;1889;50.058;8.688;2024-02-28T09:52:25;100857.63;;;7.53;68.32
3748;BME280;1889;50.058;8.688;2024-02-28T09:54:55;100851.70;;;7.89;68.81
3748;BME280;1889;50.058;8.688;2024-02-28T09:57:25;100853.55;;;8.09;67.61
3748;BME280;1889;50.058;8.688;2024-02-28T09:59:58;100850.84;;;7.92;68.53
3748;BME280;1889;50.058;8.688;2024-02-28T10:02:29;100845.73;;;8.28;67.96
3748;BME280;1889;50.058;8.688;2024-02-28T10:04:59;100848.88;;;8.40;67.65
3748;BME280;1889;50.058;8.688;2024-02-28T10:07:29;100859.87;;;8.59;66.82
3748;BME280;1889;50.058;8.688;2024-02-28T10:09:59;100858.59;;;8.84;66.29
3748;BME280;1889;50.058;8.688;2024-02-28T10:12:28;100855.95;;;8.87;65.82
3748;BME280;1889;50.058;8.688;2024-02-28T10:15:02;100854.23;;;9.24;64.75
3748;BME280;1889;50.058;8.688;2024-02-28T10:17:32;100854.20;;;9.27;64.68
3748;BME280;1889;50.058;8.688;2024-02-28T10:20:01;100856.41;;;9.13;64.30
3748;BME280;1889;50.058;8.688;2024-02-28T10:22:36;100864.72;;;9.04;64.92
3748;BME280;1889;50.058;8.688;2024-02-28T10:25:06;100856.40;;;9.18;65.13
3748;BME280;1889;50.058;8.688;2024-02-28T10:27:35;100862.96;;;9.47;64.61
3748;BME280;1889;50.058;8.688;2024-02-28T10:30:05;100871.25;;;9.62;64.06
3748;BME280;1889;50.058;8.688;2024-02-28T10:32:35;100874.77;;;9.64;63.33
3748;BME280;1889;50.058;8.688;2024-02-28T10:35:07;100880.91;;;9.47;63.39
3748;BME280;1889;50.058;8.688;2024-02-28T10:37:36;100877.41;;;9.27;64.39
3748;BME280;1889;50.058;8.688;2024-02-28T10:40:07;100882.24;;;9.08;65.31
3748;BME280;1889;50.058;8.688;2024-02-28T10:42:38;100878.65;;;8.62;64.98
3748;BME280;1889;50.058;8.688;2024-02-28T10:45:10;100882.21;;;9.02;65.00
3748;BME280;1889;50.058;8.688;2024-02-28T10:47:39;100887.05;;;9.13;65.09
3748;BME280;1889;50.058;8.688;2024-02-28T10:50:09;100882.66;;;9.36;64.07
3748;BME280;1889;50.058;8.688;2024-02-28T10:52:44;100886.16;;;9.11;64.45
3748;BME280;1889;50.058;8.688;2024-02-28T10:55:11;100880.91;;;9.20;64.68
3748;BME280;1889;50.058;8.688;2024-02-28T10:57:46;100873.91;;;9.30;63.67
3748;BME280;1889;50.058;8.688;2024-02-28T11:00:18;100871.28;;;9.04;64.49
3748;BME280;1889;50.058;8.688;2024-02-28T11:02:47;100872.62;;;9.16;64.68
3748;BME280;1889;50.058;8.688;2024-02-28T11:05:17;100872.13;;;9.51;63.79
3748;BME280;1889;50.058;8.688;2024-02-28T11:07:50;100870.38;;;9.60;63.15
3748;BME280;1889;50.058;8.688;2024-02-28T11:10:17;100874.74;;;9.71;62.66
3748;BME280;1889;50.058;8.688;2024-02-28T11:12:54;100882.20;;;9.63;62.80
3748;BME280;1889;50.058;8.688;2024-02-28T11:15:19;100881.30;;;9.65;63.12
3748;BME280;1889;50.058;8.688;2024-02-28T11:17:48;100875.13;;;9.83;63.02
3748;BME280;1889;50.058;8.688;2024-02-28T11:20:18;100877.75;;;9.97;63.07
3748;BME280;1889;50.058;8.688;2024-02-28T11:22:48;100880.83;;;9.84;63.09
3748;BME280;1889;50.058;8.688;2024-02-28T11:25:17;100877.28;;;10.00;62.45
3748;BME280;1889;50.058;8.688;2024-02-28T11:27:48;100881.64;;;10.10;62.22
3748;BME280;1889;50.058;8.688;2024-02-28T11:30:17;100878.16;;;9.98;61.36
3748;BME280;1889;50.058;8.688;2024-02-28T11:32:47;100886.90;;;10.12;62.31
3748;BME280;1889;50.058;8.688;2024-02-28T11:35:16;100879.85;;;10.26;61.32
3748;BME280;1889;50.058;8.688;2024-02-28T11:37:46;100881.09;;;10.43;59.49
3748;BME280;1889;50.058;8.688;2024-02-28T11:40:16;100883.28;;;10.40;60.33
3748;BME280;1889;50.058;8.688;2024-02-28T11:42:46;100879.25;;;10.57;60.30
3748;BME280;1889;50.058;8.688;2024-02-28T11:45:15;100871.84;;;10.52;59.37
3748;BME280;1889;50.058;8.688;2024-02-28T11:47:45;100869.50;;;10.74;59.81
3748;BME280;1889;50.058;8.688;2024-02-28T11:50:16;100863.55;;;10.39;59.22
3748;BME280;1889;50.058;8.688;2024-02-28T11:52:47;100868.63;;;10.74;60.07
3748;BME280;1889;50.058;8.688;2024-02-28T11:55:17;100869.33;;;11.01;59.60
3748;BME280;1889;50.058;8.688;2024-02-28T11:57:46;100861.69;;;11.21;58.61
3748;BME280;1889;50.058;8.688;2024-02-28T12:00:16;100861.42;;;11.01;58.63
3748;BME280;1889;50.058;8.688;2024-02-28T12:02:46;100864.56;;;10.93;58.54
3748;BME280;1889;50.058;8.688;2024-02-28T12:05:15;100863.52;;;11.13;57.93
3748;BME280;1889;50.058;8.688;2024-02-28T12:07:45;100863.45;;;10.60;57.86
3748;BME280;1889;50.058;8.688;2024-02-28T12:10:15;100861.06;;;10.88;58.61
3748;BME280;1889;50.058;8.688;2024-02-28T12:12:44;100861.73;;;11.18;57.74
3748;BME280;1889;50.058;8.688;2024-02-28T12:15:15;100855.38;;;11.41;57.87
3748;BME280;1889;50.058;8.688;2024-02-28T12:17:46;100853.46;;;11.57;57.46
3748;BME280;1889;50.058;8.688;2024-02-28T12:20:15;100847.34;;;11.52;56.87
3748;BME280;1889;50.058;8.688;2024-02-28T12:22:44;100847.00;;;11.89;56.21
3748;BME280;1889;50.058;8.688;2024-02-28T12:25:14;100841.21;;;11.94;55.93
3748;BME280;1889;50.058;8.688;2024-02-28T12:27:43;100833.19;;;12.03;55.80
3748;BME280;1889;50.058;8.688;2024-02-28T12:30:12;100832.09;;;12.20;55.01
3748;BME280;1889;50.058;8.688;2024-02-28T12:32:42;100818.11;;;12.14;54.29
3748;BME280;1889;50.058;8.688;2024-02-28T12:35:11;100817.64;;;11.80;53.88
3748;BME280;1889;50.058;8.688;2024-02-28T12:37:40;100825.61;;;11.27;55.49
3748;BME280;1889;50.058;8.688;2024-02-28T12:40:10;100819.03;;;11.75;55.71
3748;BME280;1889;50.058;8.688;2024-02-28T12:42:39;100812.52;;;12.04;55.29
3748;BME280;1889;50.058;8.688;2024-02-28T12:45:09;100805.47;;;12.06;54.48
3748;BME280;1889;50.058;8.688;2024-02-28T12:47:39;100809.30;;;12.15;54.80
3748;BME280;1889;50.058;8.688;2024-02-28T12:50:09;100809.91;;;12.34;54.10
3748;BME280;1889;50.058;8.688;2024-02-28T12:52:39;100807.23;;;12.05;54.04
3748;BME280;1889;50.058;8.688;2024-02-28T12:55:08;100813.05;;;11.55;55.15
3748;BME280;1889;50.058;8.688;2024-02-28T12:57:38;100803.36;;;11.99;54.72
3748;BME280;1889;50.058;8.688;2024-02-28T13:00:07;100799.20;;;12.14;54.43
3748;BME280;1889;50.058;8.688;2024-02-28T13:02:37;100797.70;;;12.25;54.01
3748;BME280;1889;50.058;8.688;2024-02-28T13:05:07;100796.23;;;12.37;53.90
3748;BME280;1889;50.058;8.688;2024-02-28T13:07:36;100791.38;;;12.67;53.96
3748;BME280;1889;50.058;8.688;2024-02-28T13:10:06;100790.78;;;12.78;52.34
3748;BME280;1889;50.058;8.688;2024-02-28T13:12:38;100783.28;;;12.79;52.78
3748;BME280;1889;50.058;8.688;2024-02-28T13:15:08;100783.09;;;12.89;52.83
3748;BME280;1889;50.058;8.688;2024-02-28T13:17:37;100782.77;;;12.82;52.31
3748;BME280;1889;50.058;8.688;2024-02-28T13:20:07;100781.19;;;12.97;52.34
3748;BME280;1889;50.058;8.688;2024-02-28T13:22:37;100780.41;;;12.92;51.82
3748;BME280;1889;50.058;8.688;2024-02-28T13:25:06;100774.05;;;13.04;51.56
3748;BME280;1889;50.058;8.688;2024-02-28T13:27:37;100772.98;;;13.16;52.17
3748;BME280;1889;50.058;8.688;2024-02-28T13:30:07;100772.16;;;12.29;50.97
3748;BME280;1889;50.058;8.688;2024-02-28T13:32:36;100773.27;;;12.12;51.75
3748;BME280;1889;50.058;8.688;2024-02-28T13:35:06;100768.27;;;12.54;52.05